Time;durP1;ratioP1;P1;durP2;ratioP2;P2;SDS_P1;SDS_P2;PMS_P1;PMS_P2;Temp;Humidity;BMP_temperature;BMP_pressure;BME280_temperature;BME280_humidity;BME280_pressure;Samples;Min_cycle;Max_cycle;Signal;HPM_P1;HPM_P2
2021/12/25 00:00:16;;;;;;;;;16.00;15.50;;;;;17.81;41.68;99972.13;5035837;28;51040;-49
2021/12/25 00:02:41;;;;;;;;;12.00;11.75;;;;;17.80;41.46;99970.47;5035791;28;51052;-49
2021/12/25 00:05:08;;;;;;;;;18.50;15.00;;;;;17.81;41.82;99971.28;5035308;28;51083;-47
2021/12/25 00:07:33;;;;;;;;;15.00;14.00;;;;;17.81;41.81;99965.81;5035664;28;51278;-49
2021/12/25 00:10:00;;;;;;;;;15.25;13.50;;;;;17.80;41.46;99973.19;5035260;28;51697;-51
2021/12/25 00:12:25;;;;;;;;;14.25;12.25;;;;;17.80;41.84;99969.63;5035800;28;51220;-51
2021/12/25 00:14:51;;;;;;;;;15.00;14.00;;;;;17.79;41.61;99963.31;5035261;28;52373;-49
2021/12/25 00:17:16;;;;;;;;;16.75;15.25;;;;;17.80;41.68;99962.25;5023447;28;51096;-50
2021/12/25 00:19:43;;;;;;;;;15.25;14.00;;;;;17.80;41.57;99955.91;5017409;28;51218;-51
2021/12/25 00:22:09;;;;;;;;;15.25;12.75;;;;;17.80;41.75;99956.75;5019317;28;51150;-51
2021/12/25 00:24:35;;;;;;;;;20.75;15.50;;;;;17.81;41.59;99954.84;5018760;28;51097;-52
2021/12/25 00:27:08;;;;;;;;;15.00;12.75;;;;;17.80;41.51;99945.81;5028717;28;51219;-51
2021/12/25 00:34:37;;;;;;;;;15.25;13.00;;;;;17.79;41.67;99938.66;5038212;28;51838;-52
2021/12/25 00:37:04;;;;;;;;;17.50;16.25;;;;;17.80;41.85;99934.84;5038720;28;51247;-50
2021/12/25 00:39:30;;;;;;;;;13.00;11.00;;;;;17.80;41.69;99923.06;5038508;28;51492;-49
2021/12/25 00:41:57;;;;;;;;;15.25;13.50;;;;;17.80;41.71;99925.78;5038895;28;51202;-49
2021/12/25 00:44:22;;;;;;;;;15.25;13.00;;;;;17.79;41.94;99919.47;5038511;28;51129;-48
2021/12/25 00:46:48;;;;;;;;;16.25;14.50;;;;;17.80;41.84;99921.16;5038709;28;51151;-48
2021/12/25 00:49:13;;;;;;;;;14.50;12.75;;;;;17.80;41.91;99915.66;5038489;28;51066;-51
2021/12/25 00:51:38;;;;;;;;;13.00;12.75;;;;;17.80;41.67;99910.19;5038843;28;50986;-51
2021/12/25 00:54:04;;;;;;;;;14.25;12.50;;;;;17.80;41.82;99910.19;5038286;28;51731;-51
2021/12/25 00:56:29;;;;;;;;;16.25;15.25;;;;;17.80;41.71;99921.16;5038292;28;51111;-48
2021/12/25 00:58:55;;;;;;;;;14.50;12.75;;;;;17.80;41.90;99921.16;5038489;28;51084;-53
2021/12/25 01:01:20;;;;;;;;;12.00;11.50;;;;;17.80;41.51;99926.63;5038633;28;50999;-51
2021/12/25 01:03:47;;;;;;;;;13.75;12.75;;;;;17.80;41.54;99926.63;5037816;28;52028;-49
2021/12/25 01:06:13;;;;;;;;;15.75;14.25;;;;;17.81;41.73;99925.56;5038223;28;51030;-49
2021/12/25 01:08:39;;;;;;;;;15.50;12.00;;;;;17.79;41.93;99930.44;5038510;28;50992;-51
2021/12/25 01:11:05;;;;;;;;;15.25;13.75;;;;;17.80;41.90;99926.63;5038353;28;50981;-54
2021/12/25 01:13:35;;;;;;;;;11.50;10.25;;;;;17.81;41.95;99927.47;5038108;28;51041;-51
2021/12/25 01:31:56;;;;;;;;;13.75;13.25;;;;;17.78;41.68;99934.25;5038173;28;51086;-47
2021/12/25 01:39:27;;;;;;;;;16.00;12.00;;;;;17.79;41.77;99935.06;5037710;28;51112;-48
2021/12/25 01:49:46;;;;;;;;;11.50;11.00;;;;;17.77;41.71;99938.03;5037749;28;51152;-50
2021/12/25 01:52:11;;;;;;;;;13.75;12.00;;;;;17.78;41.89;99941.63;5037922;28;50954;-50
2021/12/25 01:54:37;;;;;;;;;12.75;12.00;;;;;17.78;41.94;99944.34;5037372;28;51594;-48
2021/12/25 01:57:02;;;;;;;;;13.25;11.00;;;;;17.77;41.70;99946.25;5037783;28;51016;-47
2021/12/25 01:59:28;;;;;;;;;11.00;10.25;;;;;17.78;41.94;99949.84;5037454;28;51094;-47
2021/12/25 02:01:54;;;;;;;;;13.00;10.75;;;;;17.77;41.87;99949.00;5037817;28;51049;-48
2021/12/25 02:04:20;;;;;;;;;11.50;10.75;;;;;17.78;41.87;99945.19;5037117;28;52501;-49
2021/12/25 02:06:45;;;;;;;;;13.50;12.00;;;;;17.78;41.95;99950.66;5037556;28;50996;-49
2021/12/25 02:09:11;;;;;;;;;11.00;10.50;;;;;17.78;42.01;99958.91;5037239;28;51139;-47
2021/12/25 02:11:37;;;;;;;;;11.00;10.75;;;;;17.79;42.01;99954.25;5037377;28;50962;-49
2021/12/25 02:14:03;;;;;;;;;9.75;9.50;;;;;17.78;41.92;99950.66;5037158;28;51753;-46
2021/12/25 02:16:39;;;;;;;;;10.25;9.25;;;;;17.77;41.92;99949.00;5032166;28;51350;-47
2021/12/25 02:19:10;;;;;;;;;9.50;8.25;;;;;17.77;41.70;99948.16;5017178;28;51074;-48
2021/12/25 02:21:40;;;;;;;;;10.00;10.00;;;;;17.77;41.87;99948.16;5017229;28;51054;-49
2021/12/25 02:24:13;;;;;;;;;12.25;10.00;;;;;17.77;41.75;99951.75;5017066;28;52590;-49
2021/12/25 02:26:43;;;;;;;;;9.75;8.00;;;;;17.78;41.96;99947.09;5023844;28;51428;-47
2021/12/25 02:29:08;;;;;;;;;11.00;9.50;;;;;17.77;41.78;99949.00;5037083;28;51146;-53
2021/12/25 02:31:34;;;;;;;;;11.50;9.75;;;;;17.76;41.66;99955.53;5037099;28;51203;-50
2021/12/25 02:33:59;;;;;;;;;7.25;7.25;;;;;17.77;41.90;99943.53;5036429;28;51455;-51
2021/12/25 02:36:25;;;;;;;;;11.75;10.75;;;;;17.76;41.94;99947.31;5037110;28;51045;-50
2021/12/25 02:38:50;;;;;;;;;9.00;9.00;;;;;17.76;41.72;99947.31;5036673;28;51216;-48
2021/12/25 02:41:17;;;;;;;;;10.25;9.00;;;;;17.77;41.77;99949.00;5036255;28;50952;-48
2021/12/25 02:43:45;;;;;;;;;11.00;8.50;;;;;17.76;41.87;99947.31;5036502;28;51049;-52
2021/12/25 02:46:11;;;;;;;;;8.75;8.75;;;;;17.76;42.02;99947.31;5036703;28;51137;-49
2021/12/25 02:48:37;;;;;;;;;9.00;7.75;;;;;17.76;41.77;99939.09;5036466;28;51160;-47
2021/12/25 02:51:04;;;;;;;;;8.25;8.25;;;;;17.77;41.94;99938.03;5036842;28;51030;-51
2021/12/25 02:53:30;;;;;;;;;9.00;6.50;;;;;17.77;41.75;99938.03;5036325;28;51041;-46
2021/12/25 02:55:56;;;;;;;;;8.75;7.50;;;;;17.77;41.86;99934.47;5035045;28;51512;-47
2021/12/25 02:58:22;;;;;;;;;8.75;8.00;;;;;17.77;41.99;99943.53;5036829;28;51213;-48
2021/12/25 03:00:50;;;;;;;;;9.75;9.75;;;;;17.77;41.76;99937.22;5036920;28;51336;-50
2021/12/25 03:03:16;;;;;;;;;8.25;8.00;;;;;17.77;41.82;99937.22;5036378;28;51170;-50
2021/12/25 03:05:41;;;;;;;;;7.75;7.75;;;;;17.76;41.89;99935.53;5036450;28;51033;-51
2021/12/25 03:08:09;;;;;;;;;9.00;7.25;;;;;17.76;42.09;99941.84;5036486;28;50950;-49
2021/12/25 03:10:37;;;;;;;;;8.50;6.25;;;;;17.76;42.09;99941.84;5036498;28;51126;-50
2021/12/25 03:13:17;;;;;;;;;5.50;5.50;;;;;17.77;41.68;99940.78;5036271;28;50991;-49
2021/12/25 03:15:46;;;;;;;;;7.50;5.25;;;;;17.76;41.79;99939.09;5036402;28;51382;-47
2021/12/25 03:18:19;;;;;;;;;8.00;6.75;;;;;17.77;41.94;99939.94;5031306;28;50991;-48
2021/12/25 03:20:47;;;;;;;;;7.00;6.00;;;;;17.77;41.61;99942.69;5016668;28;51130;-52
2021/12/25 03:23:14;;;;;;;;;9.50;8.50;;;;;17.77;42.17;99943.53;5014749;28;53039;-52
2021/12/25 03:25:41;;;;;;;;;5.75;5.25;;;;;17.76;41.77;99936.38;5016189;28;51314;-48
2021/12/25 03:28:07;;;;;;;;;8.00;6.50;;;;;17.76;41.75;99936.38;5034770;28;51419;-50
2021/12/25 03:30:37;;;;;;;;;7.00;6.50;;;;;17.76;41.74;99930.91;5036265;28;50923;-49
2021/12/25 03:33:03;;;;;;;;;8.75;6.00;;;;;17.76;41.88;99930.06;5035913;28;51025;-51
2021/12/25 03:35:29;;;;;;;;;9.50;6.00;;;;;17.76;42.05;99939.09;5036156;28;51159;-51
2021/12/25 03:37:55;;;;;;;;;10.00;7.00;;;;;17.77;41.91;99937.22;5035964;28;50961;-49
2021/12/25 03:40:20;;;;;;;;;6.00;6.00;;;;;17.76;42.14;99938.28;5035694;28;51065;-48
2021/12/25 03:42:45;;;;;;;;;7.50;7.00;;;;;17.76;41.95;99952.81;5035872;28;50946;-53
2021/12/25 03:45:11;;;;;;;;;6.50;6.50;;;;;17.76;41.74;99950.06;5036111;28;51008;-47
2021/12/25 03:47:38;;;;;;;;;5.50;5.50;;;;;17.76;41.86;99954.72;5036090;28;51080;-50
2021/12/25 03:58:23;;;;;;;;;4.75;4.75;;;;;17.75;41.78;99945.66;5035912;28;51346;-50
2021/12/25 04:00:49;;;;;;;;;5.50;5.50;;;;;17.76;42.09;99955.53;5036272;28;51100;-51
2021/12/25 04:03:24;;;;;;;;;5.50;5.00;;;;;17.76;42.08;99962.94;5035119;28;51860;-49
2021/12/25 04:05:50;;;;;;;;;5.50;5.50;;;;;17.76;42.09;99963.75;5035624;28;51020;-50
2021/12/25 04:08:19;;;;;;;;;8.00;6.25;;;;;17.76;41.78;99957.44;5035595;28;51030;-49
2021/12/25 04:10:47;;;;;;;;;6.50;4.75;;;;;17.76;41.90;99947.31;5035830;28;51118;-49
2021/12/25 04:13:15;;;;;;;;;5.75;4.75;;;;;17.76;41.68;99971.16;5035425;28;52329;-48
2021/12/25 04:15:41;;;;;;;;;5.25;5.25;;;;;17.76;41.93;99966.50;5035574;28;51200;-47
2021/12/25 04:18:07;;;;;;;;;5.75;5.75;;;;;17.76;41.89;99965.66;5016633;28;51190;-49
2021/12/25 04:20:32;;;;;;;;;6.75;6.75;;;;;17.75;41.99;99953.88;5015826;28;51223;-49
2021/12/25 04:23:03;;;;;;;;;5.00;4.25;;;;;17.75;41.88;99962.09;5015485;28;51722;-49
2021/12/25 04:25:32;;;;;;;;;5.50;4.50;;;;;17.76;41.78;99955.53;5015502;28;51109;-51
2021/12/25 04:28:03;;;;;;;;;9.50;7.50;;;;;17.77;41.80;99953.66;5033070;28;51134;-47
2021/12/25 05:05:18;;;;;;;;;7.50;6.50;;;;;17.74;42.22;99954.94;5035961;28;51685;-49
2021/12/25 05:07:44;;;;;;;;;5.75;5.75;;;;;17.75;41.97;99964.00;5038307;28;50946;-49
2021/12/25 05:10:09;;;;;;;;;4.50;4.00;;;;;17.74;41.90;99959.59;5038227;28;51063;-48
2021/12/25 05:12:35;;;;;;;;;3.50;3.00;;;;;17.75;42.04;99956.63;5054146;28;51327;-53
2021/12/25 05:15:00;;;;;;;;;5.75;5.00;;;;;17.75;42.27;99964.00;5038285;28;51020;-52
2021/12/25 05:17:25;;;;;;;;;3.50;3.00;;;;;17.75;42.17;99973.03;5025112;28;51083;-50
2021/12/25 05:19:51;;;;;;;;;4.25;4.25;;;;;17.76;41.87;99962.94;5018197;28;50904;-49
2021/12/25 05:22:18;;;;;;;;;5.00;4.00;;;;;17.77;42.31;99959.13;5018533;28;51375;-51
2021/12/25 05:24:43;;;;;;;;;5.25;4.50;;;;;17.76;41.99;99965.66;5017929;28;52157;-49
2021/12/25 05:27:09;;;;;;;;;5.00;5.00;;;;;17.75;42.13;99967.56;5029060;28;51100;-49
2021/12/25 05:29:37;;;;;;;;;4.50;4.50;;;;;17.75;42.11;99973.03;5038110;28;51124;-50
2021/12/25 05:32:02;;;;;;;;;5.50;4.75;;;;;17.76;42.05;99969.25;5038465;28;51061;-50
2021/12/25 05:34:28;;;;;;;;;5.00;5.00;;;;;17.76;42.07;99966.50;5037751;28;51061;-50
2021/12/25 05:36:54;;;;;;;;;4.75;4.75;;;;;17.76;42.14;99971.16;5037901;28;50948;-48
2021/12/25 05:39:20;;;;;;;;;7.00;5.00;;;;;17.76;42.18;99968.41;5037634;28;51075;-51
2021/12/25 05:41:45;;;;;;;;;3.50;3.50;;;;;17.75;42.28;99967.56;5038258;28;51147;-53
2021/12/25 05:44:11;;;;;;;;;5.25;4.00;;;;;17.76;42.20;99973.88;5037680;28;51622;-47
2021/12/25 05:46:36;;;;;;;;;5.75;5.00;;;;;17.75;42.19;99967.56;5038124;28;50923;-53
2021/12/25 05:49:01;;;;;;;;;5.25;4.75;;;;;17.75;42.22;99981.25;5037808;28;51005;-51
2021/12/25 05:51:27;;;;;;;;;5.00;4.00;;;;;17.76;42.04;99971.97;5038328;28;51161;-48
2021/12/25 05:53:52;;;;;;;;;7.25;4.00;;;;;17.76;42.02;99976.63;5037514;28;51081;-47
2021/12/25 05:56:18;;;;;;;;;6.25;4.50;;;;;17.76;42.00;99968.41;5038022;28;51268;-48
2021/12/25 05:58:43;;;;;;;;;4.00;4.00;;;;;17.75;42.29;99967.56;5037701;28;51124;-49
2021/12/25 06:01:09;;;;;;;;;4.25;4.25;;;;;17.75;42.25;99970.31;5037773;28;51042;-51
2021/12/25 06:03:34;;;;;;;;;5.75;5.75;;;;;17.76;41.86;99969.25;5037195;28;51826;-47
2021/12/25 06:06:00;;;;;;;;;5.00;5.00;;;;;17.76;42.20;99976.63;5037941;28;51412;-51
2021/12/25 06:08:28;;;;;;;;;6.25;5.75;;;;;17.76;42.34;99976.63;5037358;28;51006;-50
2021/12/25 06:10:55;;;;;;;;;4.00;4.00;;;;;17.76;42.07;99977.47;5037553;28;51073;-48
2021/12/25 06:13:22;;;;;;;;;2.50;2.50;;;;;17.75;42.25;99975.78;5037246;28;51093;-49
2021/12/25 06:15:49;;;;;;;;;3.75;3.75;;;;;17.76;42.10;99974.72;5037087;28;51084;-49
2021/12/25 06:18:15;;;;;;;;;5.25;3.50;;;;;17.76;42.23;99977.47;5016451;28;51177;-49
2021/12/25 06:20:40;;;;;;;;;4.00;3.25;;;;;17.76;42.34;99974.72;5017722;28;51057;-51
2021/12/25 06:23:07;;;;;;;;;3.00;3.00;;;;;17.76;42.08;99973.88;5017199;28;51818;-49
2021/12/25 06:25:33;;;;;;;;;4.00;3.25;;;;;17.76;41.96;99979.38;5017144;28;51121;-51
2021/12/25 06:27:59;;;;;;;;;6.25;3.00;;;;;17.76;42.09;99982.09;5034999;28;50993;-48
2021/12/25 06:30:25;;;;;;;;;6.75;4.75;;;;;17.77;41.92;99986.50;5037288;28;50990;-48
2021/12/25 06:32:51;;;;;;;;;5.25;4.25;;;;;17.77;42.33;99983.78;5036682;28;52041;-50
2021/12/25 06:35:16;;;;;;;;;7.25;4.25;;;;;17.76;42.13;99993.06;5036998;28;50980;-48
2021/12/25 06:37:45;;;;;;;;;8.00;6.00;;;;;17.76;41.97;99999.38;5037176;28;51089;-50
2021/12/25 06:40:11;;;;;;;;;7.75;5.50;;;;;17.76;42.34;99988.41;5036660;28;51192;-48
2021/12/25 06:42:38;;;;;;;;;5.50;4.50;;;;;17.77;42.37;99997.47;5036855;28;52668;-47
2021/12/25 06:45:04;;;;;;;;;3.25;3.25;;;;;17.76;42.10;99991.16;5037112;28;51053;-50
2021/12/25 06:47:30;;;;;;;;;3.75;3.75;;;;;17.77;42.24;99992.00;5037009;28;51041;-48
2021/12/25 06:49:55;;;;;;;;;6.00;5.50;;;;;17.77;41.96;99998.31;5036924;28;51135;-48
2021/12/25 06:52:20;;;;;;;;;3.75;3.75;;;;;17.76;42.10;99993.91;5036664;28;50905;-48
2021/12/25 06:54:46;;;;;;;;;0.75;0.50;;;;;17.76;42.44;99999.38;5036588;28;50978;-47
2021/12/25 06:57:11;;;;;;;;;4.75;2.75;;;;;17.75;42.22;100000.44;5036719;28;51117;-49
2021/12/25 06:59:37;;;;;;;;;7.50;7.00;;;;;17.75;42.00;99992.22;5037019;28;51284;-50
2021/12/25 07:02:02;;;;;;;;;4.25;4.00;;;;;17.75;42.34;99989.47;5036616;28;50973;-48
2021/12/25 07:04:27;;;;;;;;;5.50;4.75;;;;;17.76;42.08;99984.84;5036454;28;51214;-49
2021/12/25 07:06:53;;;;;;;;;4.00;3.50;;;;;17.77;42.24;99994.72;5036740;28;51047;-52
2021/12/25 07:09:18;;;;;;;;;4.75;4.25;;;;;17.76;42.28;99993.91;5036694;28;51137;-51
2021/12/25 07:11:44;;;;;;;;;5.00;4.00;;;;;17.75;42.16;100003.19;5036662;28;51972;-46
2021/12/25 07:14:11;;;;;;;;;4.00;4.00;;;;;17.76;42.33;99999.38;5036453;28;51025;-49
2021/12/25 07:16:37;;;;;;;;;8.25;6.75;;;;;17.77;42.17;99992.00;5045438;28;51131;-51
2021/12/25 07:19:02;;;;;;;;;4.25;3.75;;;;;17.76;42.32;99998.53;5016651;28;51355;-46
2021/12/25 07:21:28;;;;;;;;;4.75;4.75;;;;;17.77;42.20;99998.31;5016466;28;51793;-50
2021/12/25 07:23:53;;;;;;;;;4.00;4.00;;;;;17.76;42.38;99996.63;5016048;28;50945;-51
2021/12/25 07:26:19;;;;;;;;;4.00;4.00;;;;;17.76;42.38;100001.28;5020493;28;51292;-46
2021/12/25 07:28:45;;;;;;;;;4.00;4.00;;;;;17.76;42.11;100002.13;5035934;28;51316;-50
2021/12/25 07:31:11;;;;;;;;;6.00;4.25;;;;;17.76;42.46;99999.38;5036427;28;51259;-49
2021/12/25 07:33:37;;;;;;;;;4.50;4.50;;;;;17.76;42.45;99998.53;5036053;28;51038;-47
2021/12/25 07:36:03;;;;;;;;;7.25;4.25;;;;;17.76;42.67;99996.63;5036161;28;51148;-48
2021/12/25 07:38:29;;;;;;;;;5.00;4.25;;;;;17.76;42.50;100010.34;5036373;28;51139;-50
2021/12/25 07:40:54;;;;;;;;;8.50;6.00;;;;;17.76;42.35;99999.38;5035404;28;51260;-49
2021/12/25 07:43:19;;;;;;;;;6.25;4.75;;;;;17.76;42.18;99991.16;5036135;28;51112;-50
2021/12/25 07:45:50;;;;;;;;;4.75;4.75;;;;;17.76;42.49;99999.38;5036223;28;51113;-46
2021/12/25 07:48:18;;;;;;;;;3.75;3.75;;;;;17.76;42.53;100002.13;5036087;28;51029;-50
2021/12/25 07:50:44;;;;;;;;;8.75;6.00;;;;;17.77;42.53;100005.69;5035892;28;51924;-46
2021/12/25 07:53:10;;;;;;;;;5.75;4.25;;;;;17.76;42.57;100002.13;5035785;28;51178;-47
2021/12/25 07:55:36;;;;;;;;;5.00;5.00;;;;;17.75;42.35;100003.19;5035644;28;51095;-51
2021/12/25 07:58:02;;;;;;;;;5.00;5.00;;;;;17.76;42.26;100002.13;5035996;28;51171;-52
2021/12/25 08:00:28;;;;;;;;;5.50;4.50;;;;;17.76;42.23;100010.34;5035858;28;51980;-48
2021/12/25 08:02:53;;;;;;;;;6.50;4.75;;;;;17.76;42.51;100015.81;5035618;28;51115;-48
2021/12/25 08:05:20;;;;;;;;;5.00;5.00;;;;;17.76;42.19;100010.34;5035681;28;51086;-50
2021/12/25 08:07:46;;;;;;;;;6.25;4.00;;;;;17.76;42.57;100010.34;5035978;28;51590;-50
2021/12/25 08:10:13;;;;;;;;;5.50;5.00;;;;;17.76;42.19;100013.06;5035301;28;51855;-51
2021/12/25 08:12:43;;;;;;;;;4.50;4.50;;;;;17.77;42.59;100013.91;5035827;28;51652;-52
2021/12/25 08:15:10;;;;;;;;;5.00;4.00;;;;;17.76;42.30;100018.56;5035311;28;51108;-47
2021/12/25 08:17:36;;;;;;;;;6.75;6.25;;;;;17.76;42.37;100015.81;5021337;28;51137;-52
2021/12/25 08:20:03;;;;;;;;;8.25;6.25;;;;;17.76;42.60;100018.56;5015240;28;51984;-49
2021/12/25 08:22:29;;;;;;;;;6.00;5.00;;;;;17.76;42.28;100021.28;5015862;28;51360;-50
2021/12/25 08:24:54;;;;;;;;;4.75;4.75;;;;;17.77;42.32;100025.69;5015690;28;51012;-48
2021/12/25 08:27:19;;;;;;;;;7.25;5.00;;;;;17.77;42.65;100020.22;5027997;28;51288;-52
2021/12/25 08:29:45;;;;;;;;;4.75;4.75;;;;;17.77;42.50;100022.13;5035224;28;51140;-47
2021/12/25 08:32:10;;;;;;;;;4.25;4.25;;;;;17.77;42.35;100016.66;5035215;28;51151;-50
2021/12/25 08:34:37;;;;;;;;;5.75;5.25;;;;;17.77;42.57;100022.13;5035519;28;51110;-48
2021/12/25 08:37:04;;;;;;;;;8.50;8.25;;;;;17.77;42.36;100020.22;5035568;28;51251;-47
2021/12/25 08:39:29;;;;;;;;;6.75;6.00;;;;;17.78;42.52;100018.31;5034840;28;51081;-51
2021/12/25 08:42:02;;;;;;;;;7.25;5.00;;;;;17.76;42.23;100018.56;5038640;28;51100;-50
2021/12/25 08:44:53;;;;;;;;;5.50;5.25;;;;;17.76;42.55;100021.28;5039038;28;51396;-49
2021/12/25 08:47:20;;;;;;;;;6.50;4.50;;;;;17.75;42.43;100022.34;5039051;28;51068;-48
2021/12/25 08:49:46;;;;;;;;;5.00;5.00;;;;;17.76;42.39;100025.94;5038557;28;52804;-50
2021/12/25 08:52:15;;;;;;;;;5.25;4.50;;;;;17.76;42.41;100029.50;5038542;28;51020;-47
2021/12/25 08:54:42;;;;;;;;;3.25;3.25;;;;;17.76;42.44;100029.50;5038567;28;51084;-46
2021/12/25 08:57:09;;;;;;;;;5.25;5.25;;;;;17.76;42.41;100032.25;5039091;28;51429;-50
2021/12/25 08:59:36;;;;;;;;;5.75;5.50;;;;;17.76;42.29;100032.25;5038284;28;53750;-47
2021/12/25 09:02:05;;;;;;;;;5.50;5.00;;;;;17.76;42.53;100032.25;5038692;28;51358;-47
2021/12/25 09:04:31;;;;;;;;;6.00;6.00;;;;;17.76;42.71;100034.16;5038268;28;51079;-48
2021/12/25 09:06:56;;;;;;;;;4.50;4.50;;;;;17.78;42.65;100037.50;5038771;28;50943;-48
2021/12/25 09:09:22;;;;;;;;;7.75;6.75;;;;;17.77;42.31;100033.09;5038023;28;51874;-51
2021/12/25 09:11:47;;;;;;;;;8.50;5.50;;;;;17.77;42.39;100030.34;5038565;28;51075;-49
2021/12/25 09:14:13;;;;;;;;;6.75;6.75;;;;;17.77;42.67;100035.81;5038357;28;51187;-48
2021/12/25 09:16:38;;;;;;;;;6.50;5.00;;;;;17.77;42.45;100042.13;5031894;28;51095;-51
2021/12/25 09:19:04;;;;;;;;;5.75;5.25;;;;;17.77;42.53;100033.09;5018083;28;51004;-51
2021/12/25 09:21:30;;;;;;;;;6.50;5.75;;;;;17.78;42.54;100034.75;5018118;28;51025;-48
2021/12/25 09:23:55;;;;;;;;;5.50;5.50;;;;;17.78;42.54;100043.81;5018350;28;51038;-50
2021/12/25 09:26:21;;;;;;;;;4.50;4.50;;;;;17.77;42.25;100050.34;5021467;28;51286;-51
2021/12/25 09:28:47;;;;;;;;;6.50;4.75;;;;;17.78;42.56;100040.25;5037950;28;51877;-49
2021/12/25 09:31:13;;;;;;;;;8.00;5.50;;;;;17.77;42.39;100042.13;5036773;28;51328;-49
2021/12/25 09:33:38;;;;;;;;;6.75;4.75;;;;;17.78;42.48;100045.72;5037782;28;51208;-50
2021/12/25 09:36:04;;;;;;;;;5.00;5.00;;;;;17.77;42.33;100046.78;5038412;28;51054;-50
2021/12/25 09:38:31;;;;;;;;;9.50;6.00;;;;;17.78;42.26;100048.44;5037833;28;51877;-51
2021/12/25 09:40:58;;;;;;;;;6.50;5.50;;;;;17.78;42.64;100049.28;5037515;28;51350;-48
2021/12/25 09:43:24;;;;;;;;;7.75;6.75;;;;;17.78;42.64;100056.69;5038121;28;51117;-50
2021/12/25 09:45:50;;;;;;;;;4.00;4.00;;;;;17.77;42.44;100058.56;5038181;28;51417;-47
2021/12/25 09:48:15;;;;;;;;;7.00;6.00;;;;;17.78;42.36;100054.78;5037689;28;51205;-50
2021/12/25 09:50:41;;;;;;;;;6.00;5.00;;;;;17.79;42.67;100052.88;5037886;28;51095;-47
2021/12/25 09:53:08;;;;;;;;;5.00;5.00;;;;;17.78;42.47;100063.00;5053319;28;51131;-48
2021/12/25 09:55:34;;;;;;;;;4.50;3.75;;;;;17.79;42.44;100058.34;5037832;28;51191;-46
2021/12/25 09:57:59;;;;;;;;;6.00;5.00;;;;;17.79;42.56;100050.97;5037658;28;51774;-50
2021/12/25 10:00:26;;;;;;;;;7.75;5.00;;;;;17.79;42.52;100059.19;5037634;28;50895;-51
2021/12/25 10:02:54;;;;;;;;;6.00;4.50;;;;;17.80;42.39;100062.75;5037294;28;50993;-49
2021/12/25 10:05:41;;;;;;;;;4.25;4.25;;;;;17.79;42.39;100053.72;5037630;28;51079;-48
2021/12/25 10:08:11;;;;;;;;;7.75;7.00;;;;;17.79;42.59;100059.19;5037417;28;52333;-51
2021/12/25 10:10:47;;;;;;;;;7.25;7.00;;;;;17.80;42.24;100068.25;5037180;28;51352;-52
2021/12/25 10:13:32;;;;;;;;;5.25;5.00;;;;;17.80;42.58;100068.25;5037630;28;51060;-47
2021/12/25 10:16:17;;;;;;;;;6.25;6.25;;;;;17.80;42.33;100065.50;5036349;28;51133;-51
2021/12/25 10:18:44;;;;;;;;;5.00;5.00;;;;;17.80;42.45;100052.66;5017136;28;51318;-49
2021/12/25 10:21:27;;;;;;;;;5.00;5.00;;;;;17.81;42.75;100050.75;5017396;28;51159;-52
2021/12/25 10:24:27;;;;;;;;;6.00;5.50;;;;;17.80;42.38;100044.41;5017660;28;51137;-47
2021/12/25 10:27:07;;;;;;;;;7.50;6.75;;;;;17.80;42.39;100041.69;5020980;28;51420;-50
2021/12/25 10:29:32;;;;;;;;;7.25;6.00;;;;;17.81;42.34;100048.00;5036840;28;52226;-46
2021/12/25 10:32:12;;;;;;;;;8.00;6.50;;;;;17.80;42.30;100038.94;5037093;28;50990;-46
2021/12/25 10:34:37;;;;;;;;;8.00;6.00;;;;;17.81;42.46;100037.03;5037170;28;51239;-50
2021/12/25 10:37:08;;;;;;;;;5.25;5.25;;;;;17.81;42.24;100040.63;5037508;28;51279;-51
2021/12/25 10:39:33;;;;;;;;;6.00;6.00;;;;;17.81;42.65;100040.63;5036482;28;51154;-49
2021/12/25 10:42:06;;;;;;;;;8.50;5.00;;;;;17.80;42.68;100044.41;5036764;28;51028;-51
2021/12/25 10:44:36;;;;;;;;;5.75;5.75;;;;;17.80;42.38;100038.94;5037121;28;51156;-49
2021/12/25 10:47:10;;;;;;;;;4.50;4.00;;;;;17.81;42.71;100048.84;5037160;28;51044;-50
2021/12/25 10:49:39;;;;;;;;;5.00;4.00;;;;;17.82;42.38;100044.19;5036700;28;51104;-48
2021/12/25 10:52:20;;;;;;;;;8.00;7.25;;;;;17.82;42.42;100046.94;5036935;28;51352;-47
2021/12/25 10:54:50;;;;;;;;;8.75;6.50;;;;;17.81;42.51;100039.78;5036613;28;51079;-48
2021/12/25 10:57:58;;;;;;;;;7.75;5.75;;;;;17.82;42.55;100034.09;5037114;28;51125;-52
2021/12/25 11:00:33;;;;;;;;;5.75;5.75;;;;;17.81;42.55;100026.09;5036149;28;51013;-51
2021/12/25 11:03:01;;;;;;;;;8.00;7.50;;;;;17.81;42.49;100028.81;5036109;28;51065;-48
2021/12/25 11:05:29;;;;;;;;;7.50;6.00;;;;;17.81;42.46;100028.81;5036700;28;51097;-50
2021/12/25 11:08:14;;;;;;;;;7.50;7.50;;;;;17.81;42.49;100015.97;5036820;28;50953;-50
2021/12/25 11:10:45;;;;;;;;;5.75;5.75;;;;;17.81;42.70;100015.97;5036240;28;52589;-50
2021/12/25 11:13:17;;;;;;;;;5.00;5.00;;;;;17.82;42.64;100011.31;5036612;28;51000;-50
2021/12/25 11:15:42;;;;;;;;;10.00;8.75;;;;;17.82;42.64;100011.31;5036335;28;51059;-52
2021/12/25 11:18:09;;;;;;;;;5.25;5.25;;;;;17.82;42.42;100011.31;5021791;28;51203;-51
2021/12/25 11:20:37;;;;;;;;;8.75;7.75;;;;;17.82;42.67;100012.19;5016216;28;51060;-51
2021/12/25 11:23:06;;;;;;;;;9.00;5.50;;;;;17.81;42.63;100005.00;5016519;28;51125;-50
2021/12/25 11:25:34;;;;;;;;;9.50;9.00;;;;;17.82;42.36;100009.44;5016167;28;50986;-47
2021/12/25 11:28:02;;;;;;;;;6.50;5.50;;;;;17.81;42.30;99996.78;5034246;28;51100;-50
2021/12/25 11:30:31;;;;;;;;;7.00;5.75;;;;;17.81;42.36;99999.53;5036031;28;52077;-51
2021/12/25 11:32:56;;;;;;;;;8.25;6.25;;;;;17.82;42.37;99998.50;5036082;28;51301;-50
2021/12/25 11:35:22;;;;;;;;;6.00;6.00;;;;;17.83;42.29;100002.06;5036161;28;51074;-50
2021/12/25 11:37:50;;;;;;;;;6.50;6.50;;;;;17.82;42.37;99995.75;5036276;28;51289;-51
2021/12/25 11:40:18;;;;;;;;;7.25;7.00;;;;;17.82;42.66;99989.41;5035435;28;52071;-50
2021/12/25 11:42:49;;;;;;;;;5.25;5.25;;;;;17.83;42.65;99988.38;5035797;28;51405;-51
2021/12/25 11:45:21;;;;;;;;;6.00;4.50;;;;;17.83;42.45;99988.38;5036190;28;51096;-49
2021/12/25 11:47:53;;;;;;;;;6.50;6.00;;;;;17.83;42.54;99989.22;5035769;28;51265;-48
2021/12/25 11:50:23;;;;;;;;;9.00;6.00;;;;;17.83;42.65;99993.84;5035749;28;52644;-50
2021/12/25 11:53:07;;;;;;;;;8.50;6.75;;;;;17.84;42.39;99988.13;5035661;28;51478;-48
2021/12/25 11:58:46;;;;;;;;;7.00;5.50;;;;;17.84;42.49;99987.31;5036008;28;51139;-47
2021/12/25 12:01:25;;;;;;;;;8.50;7.25;;;;;17.84;42.33;99990.03;5035608;28;52804;-47
2021/12/25 12:04:14;;;;;;;;;9.50;9.25;;;;;17.84;42.68;99984.56;5035704;28;51297;-47
2021/12/25 12:06:46;;;;;;;;;9.25;6.75;;;;;17.85;42.31;99972.53;5035663;28;50992;-45
2021/12/25 12:09:25;;;;;;;;;6.00;6.00;;;;;17.84;42.36;99981.81;5035736;28;51032;-47
2021/12/25 12:12:13;;;;;;;;;7.50;5.75;;;;;17.85;42.71;99978.00;5035424;28;51969;-46
2021/12/25 12:14:38;;;;;;;;;6.25;5.50;;;;;17.85;42.66;99972.53;5035870;28;51849;-45
2021/12/25 12:17:17;;;;;;;;;8.50;6.25;;;;;17.85;42.46;99983.50;5034297;28;51137;-49
2021/12/25 12:19:44;;;;;;;;;5.50;5.50;;;;;17.85;42.61;99973.38;5019140;28;51058;-49
2021/12/25 12:22:19;;;;;;;;;9.25;6.50;;;;;17.85;42.83;99980.75;5018880;28;51955;-50
2021/12/25 12:25:45;;;;;;;;;7.00;7.00;;;;;17.85;42.73;99981.59;5018937;28;51370;-48
2021/12/25 12:27:40;;;;;;;;;7.75;5.50;;;;;17.86;42.63;99979.69;5035558;28;51089;-48
2021/12/25 12:30:08;;;;;;;;;3.25;3.25;;;;;17.87;42.63;99984.09;5038988;28;51095;-46
2021/12/25 12:32:43;;;;;;;;;8.00;7.50;;;;;17.87;42.61;99984.09;5038914;28;52036;-48
2021/12/25 12:35:26;;;;;;;;;6.75;6.50;;;;;17.87;42.55;99981.38;5038684;28;51480;-49
2021/12/25 12:37:51;;;;;;;;;7.75;6.25;;;;;17.86;42.55;99971.47;5038879;28;51138;-46
2021/12/25 12:40:23;;;;;;;;;8.50;7.25;;;;;17.86;42.51;99974.22;5038615;28;51243;-46
2021/12/25 12:42:54;;;;;;;;;9.25;7.25;;;;;17.87;42.49;99971.25;5038450;28;52631;-47
2021/12/25 12:45:34;;;;;;;;;10.50;9.50;;;;;17.87;42.67;99959.44;5038405;28;51445;-46
2021/12/25 12:48:14;;;;;;;;;6.00;6.00;;;;;17.87;42.52;99970.41;5038259;28;50985;-46
2021/12/25 12:50:51;;;;;;;;;8.25;8.00;;;;;17.87;42.41;99975.88;5038990;28;51425;-45